sensor_id;sensor_type;location;lat;lon;timestamp;temperature;humidity
30148;DHT22;16960;49.404;8.248;2023-04-15T00:01:44;21.00;38.40
30148;DHT22;16960;49.404;8.248;2023-04-15T00:04:12;20.90;38.30
30148;DHT22;16960;49.404;8.248;2023-04-15T00:06:39;20.90;38.40
30148;DHT22;16960;49.404;8.248;2023-04-15T00:09:06;20.90;38.30
30148;DHT22;16960;49.404;8.248;2023-04-15T00:11:34;20.90;38.30
30148;DHT22;16960;49.404;8.248;2023-04-15T00:14:01;20.90;38.30
30148;DHT22;16960;49.404;8.248;2023-04-15T00:16:29;20.90;38.30
30148;DHT22;16960;49.404;8.248;2023-04-15T00:18:55;20.80;38.80
30148;DHT22;16960;49.404;8.248;2023-04-15T00:21:22;20.80;38.20
30148;DHT22;16960;49.404;8.248;2023-04-15T00:23:49;20.80;38.30
30148;DHT22;16960;49.404;8.248;2023-04-15T00:26:18;20.80;38.20
30148;DHT22;16960;49.404;8.248;2023-04-15T00:28:46;20.80;38.30
30148;DHT22;16960;49.404;8.248;2023-04-15T00:31:13;20.80;38.90
30148;DHT22;16960;49.404;8.248;2023-04-15T00:33:40;20.80;38.40
30148;DHT22;16960;49.404;8.248;2023-04-15T00:36:07;20.80;38.40
30148;DHT22;16960;49.404;8.248;2023-04-15T00:38:36;20.80;38.40
30148;DHT22;16960;49.404;8.248;2023-04-15T00:41:04;20.80;38.40
30148;DHT22;16960;49.404;8.248;2023-04-15T00:43:30;20.70;38.30
30148;DHT22;16960;49.404;8.248;2023-04-15T00:46:00;20.70;38.40
30148;DHT22;16960;49.404;8.248;2023-04-15T00:48:28;20.70;38.30
30148;DHT22;16960;49.404;8.248;2023-04-15T00:50:56;20.70;38.40
30148;DHT22;16960;49.404;8.248;2023-04-15T00:53:23;20.70;38.40
30148;DHT22;16960;49.404;8.248;2023-04-15T00:55:49;20.70;38.40
30148;DHT22;16960;49.404;8.248;2023-04-15T00:58:17;20.60;38.20
30148;DHT22;16960;49.404;8.248;2023-04-15T01:00:44;20.60;38.10
30148;DHT22;16960;49.404;8.248;2023-04-15T01:03:13;20.70;38.10
30148;DHT22;16960;49.404;8.248;2023-04-15T01:05:40;20.70;38.10
30148;DHT22;16960;49.404;8.248;2023-04-15T01:08:07;20.70;38.00
30148;DHT22;16960;49.404;8.248;2023-04-15T01:10:35;20.80;38.00
30148;DHT22;16960;49.404;8.248;2023-04-15T01:13:02;20.70;37.90
30148;DHT22;16960;49.404;8.248;2023-04-15T01:15:30;20.70;37.90
30148;DHT22;16960;49.404;8.248;2023-04-15T01:17:57;20.80;37.80
30148;DHT22;16960;49.404;8.248;2023-04-15T01:20:25;20.80;37.80
30148;DHT22;16960;49.404;8.248;2023-04-15T01:22:54;20.70;37.80
30148;DHT22;16960;49.404;8.248;2023-04-15T01:25:30;20.70;37.70
30148;DHT22;16960;49.404;8.248;2023-04-15T01:27:58;20.70;37.70
30148;DHT22;16960;49.404;8.248;2023-04-15T01:30:25;20.80;37.70
30148;DHT22;16960;49.404;8.248;2023-04-15T01:32:52;20.70;37.70
30148;DHT22;16960;49.404;8.248;2023-04-15T01:35:19;20.70;37.70
30148;DHT22;16960;49.404;8.248;2023-04-15T01:37:47;20.70;37.70
30148;DHT22;16960;49.404;8.248;2023-04-15T01:40:15;20.70;37.70
30148;DHT22;16960;49.404;8.248;2023-04-15T01:42:43;20.70;37.70
30148;DHT22;16960;49.404;8.248;2023-04-15T01:45:10;20.70;37.70
30148;DHT22;16960;49.404;8.248;2023-04-15T01:47:37;20.60;37.60
30148;DHT22;16960;49.404;8.248;2023-04-15T01:50:05;20.60;37.60
30148;DHT22;16960;49.404;8.248;2023-04-15T01:52:33;20.70;37.70
30148;DHT22;16960;49.404;8.248;2023-04-15T01:55:00;20.60;37.70
30148;DHT22;16960;49.404;8.248;2023-04-15T01:57:27;20.60;37.70
30148;DHT22;16960;49.404;8.248;2023-04-15T01:59:55;20.60;37.70
30148;DHT22;16960;49.404;8.248;2023-04-15T02:02:22;20.60;37.60
30148;DHT22;16960;49.404;8.248;2023-04-15T02:04:49;20.60;37.70
30148;DHT22;16960;49.404;8.248;2023-04-15T02:07:16;20.60;37.70
30148;DHT22;16960;49.404;8.248;2023-04-15T02:09:43;20.60;37.70
30148;DHT22;16960;49.404;8.248;2023-04-15T02:12:10;20.60;37.80
30148;DHT22;16960;49.404;8.248;2023-04-15T02:14:38;20.60;37.80
30148;DHT22;16960;49.404;8.248;2023-04-15T02:17:06;20.60;37.80
30148;DHT22;16960;49.404;8.248;2023-04-15T02:19:33;20.60;37.80
30148;DHT22;16960;49.404;8.248;2023-04-15T02:22:00;20.60;37.70
30148;DHT22;16960;49.404;8.248;2023-04-15T02:24:29;20.60;37.70
30148;DHT22;16960;49.404;8.248;2023-04-15T02:26:56;20.60;37.80
30148;DHT22;16960;49.404;8.248;2023-04-15T02:29:23;20.60;37.70
30148;DHT22;16960;49.404;8.248;2023-04-15T02:31:50;20.60;37.70
30148;DHT22;16960;49.404;8.248;2023-04-15T02:34:19;20.60;37.80
30148;DHT22;16960;49.404;8.248;2023-04-15T02:36:46;20.60;37.70
30148;DHT22;16960;49.404;8.248;2023-04-15T02:39:14;20.60;37.70
30148;DHT22;16960;49.404;8.248;2023-04-15T02:41:43;20.60;37.70
30148;DHT22;16960;49.404;8.248;2023-04-15T02:44:12;20.60;37.70
30148;DHT22;16960;49.404;8.248;2023-04-15T02:46:39;20.60;37.70
30148;DHT22;16960;49.404;8.248;2023-04-15T02:49:06;20.60;37.70
30148;DHT22;16960;49.404;8.248;2023-04-15T02:51:36;20.60;37.60
30148;DHT22;16960;49.404;8.248;2023-04-15T02:54:04;20.60;37.60
30148;DHT22;16960;49.404;8.248;2023-04-15T02:56:30;20.50;37.70
30148;DHT22;16960;49.404;8.248;2023-04-15T02:58:57;20.60;37.60
30148;DHT22;16960;49.404;8.248;2023-04-15T03:01:24;20.60;37.60
30148;DHT22;16960;49.404;8.248;2023-04-15T03:03:51;20.50;37.60
30148;DHT22;16960;49.404;8.248;2023-04-15T03:06:18;20.60;37.60
30148;DHT22;16960;49.404;8.248;2023-04-15T03:08:46;20.50;37.60
30148;DHT22;16960;49.404;8.248;2023-04-15T03:11:14;20.50;37.60
30148;DHT22;16960;49.404;8.248;2023-04-15T03:13:41;20.50;37.60
30148;DHT22;16960;49.404;8.248;2023-04-15T03:16:08;20.50;37.60
30148;DHT22;16960;49.404;8.248;2023-04-15T03:18:35;20.50;37.60
30148;DHT22;16960;49.404;8.248;2023-04-15T03:21:03;20.50;37.50
30148;DHT22;16960;49.404;8.248;2023-04-15T03:23:30;20.50;37.50
30148;DHT22;16960;49.404;8.248;2023-04-15T03:26:01;20.50;37.50
30148;DHT22;16960;49.404;8.248;2023-04-15T03:28:28;20.50;37.50
30148;DHT22;16960;49.404;8.248;2023-04-15T03:30:54;20.50;37.50
30148;DHT22;16960;49.404;8.248;2023-04-15T03:33:21;20.50;37.50
30148;DHT22;16960;49.404;8.248;2023-04-15T03:35:49;20.50;38.10
30148;DHT22;16960;49.404;8.248;2023-04-15T03:38:16;20.50;37.60
30148;DHT22;16960;49.404;8.248;2023-04-15T03:40:45;20.50;37.50
30148;DHT22;16960;49.404;8.248;2023-04-15T03:43:13;20.50;37.50
30148;DHT22;16960;49.404;8.248;2023-04-15T03:45:41;20.50;37.50
30148;DHT22;16960;49.404;8.248;2023-04-15T03:48:08;20.50;37.60
30148;DHT22;16960;49.404;8.248;2023-04-15T03:50:35;20.40;37.50
30148;DHT22;16960;49.404;8.248;2023-04-15T03:53:02;20.40;37.40
30148;DHT22;16960;49.404;8.248;2023-04-15T03:55:29;20.40;37.50
30148;DHT22;16960;49.404;8.248;2023-04-15T03:57:56;20.40;37.50
30148;DHT22;16960;49.404;8.248;2023-04-15T04:00:24;20.40;37.40
30148;DHT22;16960;49.404;8.248;2023-04-15T04:02:51;20.40;37.40
30148;DHT22;16960;49.404;8.248;2023-04-15T04:05:18;20.40;37.40
30148;DHT22;16960;49.404;8.248;2023-04-15T04:07:45;20.40;37.40
30148;DHT22;16960;49.404;8.248;2023-04-15T04:10:12;20.40;37.40
30148;DHT22;16960;49.404;8.248;2023-04-15T04:12:39;20.40;37.40
30148;DHT22;16960;49.404;8.248;2023-04-15T04:15:06;20.40;37.40
30148;DHT22;16960;49.404;8.248;2023-04-15T04:17:35;20.40;37.30
30148;DHT22;16960;49.404;8.248;2023-04-15T04:20:02;20.40;37.30
30148;DHT22;16960;49.404;8.248;2023-04-15T04:22:30;20.40;37.30
30148;DHT22;16960;49.404;8.248;2023-04-15T04:24:57;20.40;37.30
30148;DHT22;16960;49.404;8.248;2023-04-15T04:27:25;20.40;37.30
30148;DHT22;16960;49.404;8.248;2023-04-15T04:29:51;20.40;37.30
30148;DHT22;16960;49.404;8.248;2023-04-15T04:32:18;20.40;37.30
30148;DHT22;16960;49.404;8.248;2023-04-15T04:34:47;20.30;37.30
30148;DHT22;16960;49.404;8.248;2023-04-15T04:37:14;20.40;37.30
30148;DHT22;16960;49.404;8.248;2023-04-15T04:39:41;20.30;37.30
30148;DHT22;16960;49.404;8.248;2023-04-15T04:42:07;20.30;37.30
30148;DHT22;16960;49.404;8.248;2023-04-15T04:44:35;20.40;37.20
30148;DHT22;16960;49.404;8.248;2023-04-15T04:47:02;20.40;37.20
30148;DHT22;16960;49.404;8.248;2023-04-15T04:49:29;20.40;37.10
30148;DHT22;16960;49.404;8.248;2023-04-15T04:51:57;20.40;37.10
30148;DHT22;16960;49.404;8.248;2023-04-15T04:54:24;20.40;37.10
30148;DHT22;16960;49.404;8.248;2023-04-15T04:56:52;20.40;37.00
30148;DHT22;16960;49.404;8.248;2023-04-15T04:59:19;20.50;37.00
30148;DHT22;16960;49.404;8.248;2023-04-15T05:01:46;20.50;37.00
30148;DHT22;16960;49.404;8.248;2023-04-15T05:04:13;20.50;37.10
30148;DHT22;16960;49.404;8.248;2023-04-15T05:06:40;20.50;37.10
30148;DHT22;16960;49.404;8.248;2023-04-15T05:09:08;20.50;37.10
30148;DHT22;16960;49.404;8.248;2023-04-15T05:11:35;20.50;37.20
30148;DHT22;16960;49.404;8.248;2023-04-15T05:14:02;20.50;37.20
30148;DHT22;16960;49.404;8.248;2023-04-15T05:16:29;20.50;37.20
30148;DHT22;16960;49.404;8.248;2023-04-15T05:18:56;20.50;37.30
30148;DHT22;16960;49.404;8.248;2023-04-15T05:21:23;20.50;37.30
30148;DHT22;16960;49.404;8.248;2023-04-15T05:23:50;20.50;37.30
30148;DHT22;16960;49.404;8.248;2023-04-15T05:26:19;20.50;37.20
30148;DHT22;16960;49.404;8.248;2023-04-15T05:28:46;20.50;37.20
30148;DHT22;16960;49.404;8.248;2023-04-15T05:31:14;20.50;37.20
30148;DHT22;16960;49.404;8.248;2023-04-15T05:33:41;20.50;37.20
30148;DHT22;16960;49.404;8.248;2023-04-15T05:36:08;20.50;37.20
30148;DHT22;16960;49.404;8.248;2023-04-15T05:38:36;20.50;37.20
30148;DHT22;16960;49.404;8.248;2023-04-15T05:41:03;20.50;37.30
30148;DHT22;16960;49.404;8.248;2023-04-15T05:43:31;20.50;37.30
30148;DHT22;16960;49.404;8.248;2023-04-15T05:45:58;20.50;37.30
30148;DHT22;16960;49.404;8.248;2023-04-15T05:48:25;20.50;37.30
30148;DHT22;16960;49.404;8.248;2023-04-15T05:50:52;20.50;37.30
30148;DHT22;16960;49.404;8.248;2023-04-15T05:53:19;20.50;37.20
30148;DHT22;16960;49.404;8.248;2023-04-15T05:55:46;20.50;37.30
30148;DHT22;16960;49.404;8.248;2023-04-15T05:58:13;20.50;37.30
30148;DHT22;16960;49.404;8.248;2023-04-15T06:00:42;20.50;37.40
30148;DHT22;16960;49.404;8.248;2023-04-15T06:03:10;20.50;37.40
30148;DHT22;16960;49.404;8.248;2023-04-15T06:05:37;20.50;37.40
30148;DHT22;16960;49.404;8.248;2023-04-15T06:08:05;20.50;37.40
30148;DHT22;16960;49.404;8.248;2023-04-15T06:10:34;20.50;37.40
30148;DHT22;16960;49.404;8.248;2023-04-15T06:13:01;20.50;37.40
30148;DHT22;16960;49.404;8.248;2023-04-15T06:15:28;20.60;37.40
30148;DHT22;16960;49.404;8.248;2023-04-15T06:17:57;20.60;37.40
30148;DHT22;16960;49.404;8.248;2023-04-15T06:20:24;20.60;37.40
30148;DHT22;16960;49.404;8.248;2023-04-15T06:22:51;20.60;37.40
30148;DHT22;16960;49.404;8.248;2023-04-15T06:25:18;20.60;37.40
30148;DHT22;16960;49.404;8.248;2023-04-15T06:27:45;20.60;37.40
30148;DHT22;16960;49.404;8.248;2023-04-15T06:30:14;20.60;37.30
30148;DHT22;16960;49.404;8.248;2023-04-15T06:32:41;20.70;37.40
30148;DHT22;16960;49.404;8.248;2023-04-15T06:35:09;20.70;37.40
30148;DHT22;16960;49.404;8.248;2023-04-15T06:37:36;20.60;37.20
30148;DHT22;16960;49.404;8.248;2023-04-15T06:40:04;20.60;37.20
30148;DHT22;16960;49.404;8.248;2023-04-15T06:42:31;20.60;37.20
30148;DHT22;16960;49.404;8.248;2023-04-15T06:44:58;20.70;37.30
30148;DHT22;16960;49.404;8.248;2023-04-15T06:47:25;20.60;37.20
30148;DHT22;16960;49.404;8.248;2023-04-15T06:49:52;20.70;37.20
30148;DHT22;16960;49.404;8.248;2023-04-15T06:52:20;20.60;37.10
30148;DHT22;16960;49.404;8.248;2023-04-15T06:54:47;20.60;37.20
30148;DHT22;16960;49.404;8.248;2023-04-15T06:57:14;20.60;37.20
30148;DHT22;16960;49.404;8.248;2023-04-15T06:59:41;20.70;37.20
30148;DHT22;16960;49.404;8.248;2023-04-15T07:02:11;20.60;37.20
30148;DHT22;16960;49.404;8.248;2023-04-15T07:04:39;20.60;37.20
30148;DHT22;16960;49.404;8.248;2023-04-15T07:07:05;20.60;37.10
30148;DHT22;16960;49.404;8.248;2023-04-15T07:09:34;20.60;37.20
30148;DHT22;16960;49.404;8.248;2023-04-15T07:12:01;20.70;37.30
30148;DHT22;16960;49.404;8.248;2023-04-15T07:14:28;20.70;37.40
30148;DHT22;16960;49.404;8.248;2023-04-15T07:16:55;20.70;37.40
30148;DHT22;16960;49.404;8.248;2023-04-15T07:19:22;20.70;37.40
30148;DHT22;16960;49.404;8.248;2023-04-15T07:21:49;20.70;37.30
30148;DHT22;16960;49.404;8.248;2023-04-15T07:24:16;20.80;37.40
30148;DHT22;16960;49.404;8.248;2023-04-15T07:26:45;20.80;37.30
30148;DHT22;16960;49.404;8.248;2023-04-15T07:29:13;20.80;37.30
30148;DHT22;16960;49.404;8.248;2023-04-15T07:31:40;20.80;37.30
30148;DHT22;16960;49.404;8.248;2023-04-15T07:34:07;20.80;37.20
30148;DHT22;16960;49.404;8.248;2023-04-15T07:36:34;20.80;37.20
30148;DHT22;16960;49.404;8.248;2023-04-15T07:39:01;20.80;37.20
30148;DHT22;16960;49.404;8.248;2023-04-15T07:41:29;20.90;37.20
30148;DHT22;16960;49.404;8.248;2023-04-15T07:43:57;20.90;37.20
30148;DHT22;16960;49.404;8.248;2023-04-15T07:46:24;20.90;37.20
30148;DHT22;16960;49.404;8.248;2023-04-15T07:48:51;20.90;37.20
30148;DHT22;16960;49.404;8.248;2023-04-15T07:51:18;20.90;37.20
30148;DHT22;16960;49.404;8.248;2023-04-15T07:53:46;20.90;37.20
30148;DHT22;16960;49.404;8.248;2023-04-15T07:56:13;20.90;37.20
30148;DHT22;16960;49.404;8.248;2023-04-15T07:58:40;20.90;37.10
30148;DHT22;16960;49.404;8.248;2023-04-15T08:01:08;21.00;37.10
30148;DHT22;16960;49.404;8.248;2023-04-15T08:03:35;21.00;37.10
30148;DHT22;16960;49.404;8.248;2023-04-15T08:06:02;21.00;37.10
30148;DHT22;16960;49.404;8.248;2023-04-15T08:08:29;21.00;37.10
30148;DHT22;16960;49.404;8.248;2023-04-15T08:10:57;21.00;37.10
30148;DHT22;16960;49.404;8.248;2023-04-15T08:13:25;21.00;37.10
30148;DHT22;16960;49.404;8.248;2023-04-15T08:16:14;21.00;37.10
30148;DHT22;16960;49.404;8.248;2023-04-15T08:18:42;21.00;37.10
30148;DHT22;16960;49.404;8.248;2023-04-15T08:21:09;21.00;37.10
30148;DHT22;16960;49.404;8.248;2023-04-15T08:23:36;21.00;37.10
30148;DHT22;16960;49.404;8.248;2023-04-15T08:26:03;21.00;37.10
30148;DHT22;16960;49.404;8.248;2023-04-15T08:28:30;21.00;37.10
30148;DHT22;16960;49.404;8.248;2023-04-15T08:30:57;21.00;37.10
30148;DHT22;16960;49.404;8.248;2023-04-15T08:33:26;21.00;37.00
30148;DHT22;16960;49.404;8.248;2023-04-15T08:35:53;21.00;37.00
30148;DHT22;16960;49.404;8.248;2023-04-15T08:38:20;21.00;37.00
30148;DHT22;16960;49.404;8.248;2023-04-15T08:40:47;21.00;36.90
30148;DHT22;16960;49.404;8.248;2023-04-15T08:43:19;21.00;36.90
30148;DHT22;16960;49.404;8.248;2023-04-15T08:45:47;21.00;37.00
30148;DHT22;16960;49.404;8.248;2023-04-15T08:48:16;21.00;36.90
30148;DHT22;16960;49.404;8.248;2023-04-15T08:50:45;21.00;37.00
30148;DHT22;16960;49.404;8.248;2023-04-15T08:53:12;21.00;37.00
30148;DHT22;16960;49.404;8.248;2023-04-15T08:55:42;21.00;37.00
30148;DHT22;16960;49.404;8.248;2023-04-15T08:58:10;21.00;37.00
30148;DHT22;16960;49.404;8.248;2023-04-15T09:00:38;21.00;37.20
30148;DHT22;16960;49.404;8.248;2023-04-15T09:03:06;21.00;37.10
30148;DHT22;16960;49.404;8.248;2023-04-15T09:05:34;21.00;37.20
30148;DHT22;16960;49.404;8.248;2023-04-15T09:08:03;21.10;37.20
30148;DHT22;16960;49.404;8.248;2023-04-15T09:10:32;21.10;37.20
30148;DHT22;16960;49.404;8.248;2023-04-15T09:13:00;21.10;37.20
30148;DHT22;16960;49.404;8.248;2023-04-15T09:15:27;21.20;37.10
30148;DHT22;16960;49.404;8.248;2023-04-15T09:17:55;21.20;37.00
30148;DHT22;16960;49.404;8.248;2023-04-15T09:20:22;21.20;37.00
30148;DHT22;16960;49.404;8.248;2023-04-15T09:22:50;21.20;36.90
30148;DHT22;16960;49.404;8.248;2023-04-15T09:25:28;21.20;36.80
30148;DHT22;16960;49.404;8.248;2023-04-15T09:27:57;21.30;36.90
30148;DHT22;16960;49.404;8.248;2023-04-15T09:30:24;21.20;36.80
30148;DHT22;16960;49.404;8.248;2023-04-15T09:32:52;21.30;36.90
30148;DHT22;16960;49.404;8.248;2023-04-15T09:35:19;21.20;36.80
30148;DHT22;16960;49.404;8.248;2023-04-15T09:37:46;21.30;36.80
30148;DHT22;16960;49.404;8.248;2023-04-15T09:40:14;21.30;36.80
30148;DHT22;16960;49.404;8.248;2023-04-15T09:42:57;21.30;36.80
30148;DHT22;16960;49.404;8.248;2023-04-15T09:45:24;21.30;36.80
30148;DHT22;16960;49.404;8.248;2023-04-15T09:47:52;21.30;36.80
30148;DHT22;16960;49.404;8.248;2023-04-15T09:50:19;21.30;36.80
30148;DHT22;16960;49.404;8.248;2023-04-15T09:52:47;21.30;36.70
30148;DHT22;16960;49.404;8.248;2023-04-15T09:55:14;21.30;36.60
30148;DHT22;16960;49.404;8.248;2023-04-15T09:57:41;21.30;36.60
30148;DHT22;16960;49.404;8.248;2023-04-15T10:00:11;21.30;36.60
30148;DHT22;16960;49.404;8.248;2023-04-15T10:02:39;21.30;36.60
30148;DHT22;16960;49.404;8.248;2023-04-15T10:05:10;21.40;36.60
30148;DHT22;16960;49.404;8.248;2023-04-15T10:07:37;21.40;36.50
30148;DHT22;16960;49.404;8.248;2023-04-15T10:10:07;21.50;36.60
30148;DHT22;16960;49.404;8.248;2023-04-15T10:12:36;21.50;36.50
30148;DHT22;16960;49.404;8.248;2023-04-15T10:15:05;21.50;36.50
30148;DHT22;16960;49.404;8.248;2023-04-15T10:17:35;21.50;36.50
30148;DHT22;16960;49.404;8.248;2023-04-15T10:20:04;21.50;36.40
30148;DHT22;16960;49.404;8.248;2023-04-15T10:22:31;21.60;36.30
30148;DHT22;16960;49.404;8.248;2023-04-15T10:24:59;21.60;36.30
30148;DHT22;16960;49.404;8.248;2023-04-15T10:27:26;21.70;36.30
30148;DHT22;16960;49.404;8.248;2023-04-15T10:29:54;21.70;36.20
30148;DHT22;16960;49.404;8.248;2023-04-15T10:32:23;21.70;36.10
30148;DHT22;16960;49.404;8.248;2023-04-15T10:34:52;21.80;36.10
30148;DHT22;16960;49.404;8.248;2023-04-15T10:37:20;21.80;36.20
30148;DHT22;16960;49.404;8.248;2023-04-15T10:39:48;21.90;36.40
30148;DHT22;16960;49.404;8.248;2023-04-15T10:42:16;21.90;36.10
30148;DHT22;16960;49.404;8.248;2023-04-15T10:44:44;21.90;36.10
30148;DHT22;16960;49.404;8.248;2023-04-15T10:47:15;21.90;36.20
30148;DHT22;16960;49.404;8.248;2023-04-15T10:49:49;21.90;36.00
30148;DHT22;16960;49.404;8.248;2023-04-15T10:52:22;21.90;36.00
30148;DHT22;16960;49.404;8.248;2023-04-15T10:54:49;21.90;36.10
30148;DHT22;16960;49.404;8.248;2023-04-15T10:57:21;22.00;36.00
30148;DHT22;16960;49.404;8.248;2023-04-15T11:00:09;22.00;35.90
30148;DHT22;16960;49.404;8.248;2023-04-15T11:02:41;22.00;35.90
30148;DHT22;16960;49.404;8.248;2023-04-15T11:05:09;22.00;36.00
30148;DHT22;16960;49.404;8.248;2023-04-15T11:07:40;22.00;36.20
30148;DHT22;16960;49.404;8.248;2023-04-15T11:13:15;22.00;36.20
30148;DHT22;16960;49.404;8.248;2023-04-15T11:15:43;22.10;36.00
30148;DHT22;16960;49.404;8.248;2023-04-15T11:18:13;22.10;35.90
30148;DHT22;16960;49.404;8.248;2023-04-15T11:20:42;22.10;35.90
30148;DHT22;16960;49.404;8.248;2023-04-15T11:23:11;22.20;35.90
30148;DHT22;16960;49.404;8.248;2023-04-15T11:25:38;22.20;35.90
30148;DHT22;16960;49.404;8.248;2023-04-15T11:28:05;22.30;35.90
30148;DHT22;16960;49.404;8.248;2023-04-15T11:30:34;22.30;35.80
30148;DHT22;16960;49.404;8.248;2023-04-15T11:33:04;22.30;36.40
30148;DHT22;16960;49.404;8.248;2023-04-15T11:35:31;22.30;35.90
30148;DHT22;16960;49.404;8.248;2023-04-15T11:38:02;22.40;35.90
30148;DHT22;16960;49.404;8.248;2023-04-15T11:40:30;22.40;36.00
30148;DHT22;16960;49.404;8.248;2023-04-15T11:43:07;22.40;36.00
30148;DHT22;16960;49.404;8.248;2023-04-15T11:45:35;22.50;36.10
30148;DHT22;16960;49.404;8.248;2023-04-15T11:48:06;22.60;36.00
30148;DHT22;16960;49.404;8.248;2023-04-15T11:50:34;22.60;36.00
30148;DHT22;16960;49.404;8.248;2023-04-15T11:53:02;22.60;35.80
30148;DHT22;16960;49.404;8.248;2023-04-15T11:55:40;22.60;35.80
30148;DHT22;16960;49.404;8.248;2023-04-15T11:58:09;22.70;35.70
30148;DHT22;16960;49.404;8.248;2023-04-15T12:00:38;22.70;35.90
30148;DHT22;16960;49.404;8.248;2023-04-15T12:03:18;22.70;35.80
30148;DHT22;16960;49.404;8.248;2023-04-15T12:06:08;22.80;35.70
30148;DHT22;16960;49.404;8.248;2023-04-15T12:08:59;22.80;35.70
30148;DHT22;16960;49.404;8.248;2023-04-15T12:11:30;22.80;35.90
30148;DHT22;16960;49.404;8.248;2023-04-15T12:14:02;22.80;36.00
30148;DHT22;16960;49.404;8.248;2023-04-15T12:16:29;22.80;36.10
30148;DHT22;16960;49.404;8.248;2023-04-15T12:18:59;22.80;36.20
30148;DHT22;16960;49.404;8.248;2023-04-15T12:21:27;22.90;36.40
30148;DHT22;16960;49.404;8.248;2023-04-15T12:23:55;22.90;35.90
30148;DHT22;16960;49.404;8.248;2023-04-15T12:26:27;22.80;35.60
30148;DHT22;16960;49.404;8.248;2023-04-15T12:29:00;22.80;35.50
30148;DHT22;16960;49.404;8.248;2023-04-15T12:31:27;22.80;35.50
30148;DHT22;16960;49.404;8.248;2023-04-15T12:33:54;22.80;35.50
30148;DHT22;16960;49.404;8.248;2023-04-15T12:36:21;22.70;35.50
30148;DHT22;16960;49.404;8.248;2023-04-15T12:38:48;22.70;35.50
30148;DHT22;16960;49.404;8.248;2023-04-15T12:41:15;22.70;35.40
30148;DHT22;16960;49.404;8.248;2023-04-15T12:43:43;22.70;35.40
30148;DHT22;16960;49.404;8.248;2023-04-15T12:46:12;22.70;35.40
30148;DHT22;16960;49.404;8.248;2023-04-15T12:48:40;22.70;35.40
30148;DHT22;16960;49.404;8.248;2023-04-15T12:51:07;22.70;35.40
30148;DHT22;16960;49.404;8.248;2023-04-15T12:53:34;22.70;35.30
30148;DHT22;16960;49.404;8.248;2023-04-15T12:56:00;22.70;35.30
30148;DHT22;16960;49.404;8.248;2023-04-15T12:58:27;22.70;35.30
30148;DHT22;16960;49.404;8.248;2023-04-15T13:00:54;22.70;35.30
30148;DHT22;16960;49.404;8.248;2023-04-15T13:03:23;22.60;35.20
30148;DHT22;16960;49.404;8.248;2023-04-15T13:05:50;22.70;35.20
30148;DHT22;16960;49.404;8.248;2023-04-15T13:08:17;22.60;35.10
30148;DHT22;16960;49.404;8.248;2023-04-15T13:10:44;22.60;35.10
30148;DHT22;16960;49.404;8.248;2023-04-15T13:13:11;22.60;35.10
30148;DHT22;16960;49.404;8.248;2023-04-15T13:15:38;22.60;35.10
30148;DHT22;16960;49.404;8.248;2023-04-15T13:18:06;22.60;35.10
30148;DHT22;16960;49.404;8.248;2023-04-15T13:20:34;22.60;35.00
30148;DHT22;16960;49.404;8.248;2023-04-15T13:23:01;22.60;35.00
30148;DHT22;16960;49.404;8.248;2023-04-15T13:25:28;22.60;35.00
30148;DHT22;16960;49.404;8.248;2023-04-15T13:27:55;22.50;35.00
30148;DHT22;16960;49.404;8.248;2023-04-15T13:30:22;22.50;35.10
30148;DHT22;16960;49.404;8.248;2023-04-15T13:32:49;22.50;36.50
30148;DHT22;16960;49.404;8.248;2023-04-15T13:35:18;22.50;36.20
30148;DHT22;16960;49.404;8.248;2023-04-15T13:37:46;22.50;36.60
30148;DHT22;16960;49.404;8.248;2023-04-15T13:40:13;22.50;36.50
30148;DHT22;16960;49.404;8.248;2023-04-15T13:42:41;22.60;36.30
30148;DHT22;16960;49.404;8.248;2023-04-15T13:45:08;22.50;36.00
30148;DHT22;16960;49.404;8.248;2023-04-15T13:47:35;22.50;35.70
30148;DHT22;16960;49.404;8.248;2023-04-15T13:50:03;22.60;37.50
30148;DHT22;16960;49.404;8.248;2023-04-15T13:52:30;22.60;37.20
30148;DHT22;16960;49.404;8.248;2023-04-15T13:54:58;22.60;36.90
30148;DHT22;16960;49.404;8.248;2023-04-15T13:57:25;22.60;36.70
30148;DHT22;16960;49.404;8.248;2023-04-15T13:59:52;22.60;36.90
30148;DHT22;16960;49.404;8.248;2023-04-15T14:02:20;22.60;37.60
30148;DHT22;16960;49.404;8.248;2023-04-15T14:04:47;22.70;37.20
30148;DHT22;16960;49.404;8.248;2023-04-15T14:07:14;22.70;37.20
30148;DHT22;16960;49.404;8.248;2023-04-15T14:09:42;22.70;37.40
30148;DHT22;16960;49.404;8.248;2023-04-15T14:12:10;22.70;36.60
30148;DHT22;16960;49.404;8.248;2023-04-15T14:14:37;22.70;36.60
30148;DHT22;16960;49.404;8.248;2023-04-15T14:17:04;22.70;36.50
30148;DHT22;16960;49.404;8.248;2023-04-15T14:19:31;22.70;36.50
30148;DHT22;16960;49.404;8.248;2023-04-15T14:21:58;22.70;36.40
30148;DHT22;16960;49.404;8.248;2023-04-15T14:24:26;22.70;36.50
30148;DHT22;16960;49.404;8.248;2023-04-15T14:26:53;22.70;36.50
30148;DHT22;16960;49.404;8.248;2023-04-15T14:29:22;22.70;36.60
30148;DHT22;16960;49.404;8.248;2023-04-15T14:31:50;22.70;36.30
30148;DHT22;16960;49.404;8.248;2023-04-15T14:34:17;22.70;36.10
30148;DHT22;16960;49.404;8.248;2023-04-15T14:36:47;22.70;36.20
30148;DHT22;16960;49.404;8.248;2023-04-15T14:39:13;22.70;36.20
30148;DHT22;16960;49.404;8.248;2023-04-15T14:41:40;22.70;36.20
30148;DHT22;16960;49.404;8.248;2023-04-15T14:44:07;22.70;36.30
30148;DHT22;16960;49.404;8.248;2023-04-15T14:46:37;22.70;36.20
30148;DHT22;16960;49.404;8.248;2023-04-15T14:49:05;22.80;36.20
30148;DHT22;16960;49.404;8.248;2023-04-15T14:51:32;22.80;36.10
30148;DHT22;16960;49.404;8.248;2023-04-15T14:53:59;22.80;36.10
30148;DHT22;16960;49.404;8.248;2023-04-15T14:56:26;22.80;36.10
30148;DHT22;16960;49.404;8.248;2023-04-15T14:58:53;22.80;36.10
30148;DHT22;16960;49.404;8.248;2023-04-15T15:01:20;22.80;36.10
30148;DHT22;16960;49.404;8.248;2023-04-15T15:03:48;22.80;36.10
30148;DHT22;16960;49.404;8.248;2023-04-15T15:06:15;22.80;36.10
30148;DHT22;16960;49.404;8.248;2023-04-15T15:08:42;22.90;36.30
30148;DHT22;16960;49.404;8.248;2023-04-15T15:11:09;22.90;36.10
30148;DHT22;16960;49.404;8.248;2023-04-15T15:13:36;22.90;36.10
30148;DHT22;16960;49.404;8.248;2023-04-15T15:16:03;22.90;36.70
30148;DHT22;16960;49.404;8.248;2023-04-15T15:18:30;22.80;36.10
30148;DHT22;16960;49.404;8.248;2023-04-15T15:20:58;22.90;36.30
30148;DHT22;16960;49.404;8.248;2023-04-15T15:23:25;22.90;36.80
30148;DHT22;16960;49.404;8.248;2023-04-15T15:25:52;22.90;36.20
30148;DHT22;16960;49.404;8.248;2023-04-15T15:28:19;22.90;36.20
30148;DHT22;16960;49.404;8.248;2023-04-15T15:30:47;22.90;36.20
30148;DHT22;16960;49.404;8.248;2023-04-15T15:33:14;22.90;36.40
30148;DHT22;16960;49.404;8.248;2023-04-15T15:35:41;22.90;36.40
30148;DHT22;16960;49.404;8.248;2023-04-15T15:38:10;22.90;36.20